Time;durP1;ratioP1;P1;durP2;ratioP2;P2;SDS_P1;SDS_P2;PMS_P1;PMS_P2;Temp;Humidity;BMP_temperature;BMP_pressure;BME280_temperature;BME280_humidity;BME280_pressure;Samples;Min_cycle;Max_cycle;Signal;HPM_P1;HPM_P2
2020/12/10 00:01:49;;;;;;;29.73;13.75;;;2.40;99.90;;;;;;5032227;28;20136;-56
2020/12/10 00:04:35;;;;;;;29.88;14.15;;;2.40;99.90;;;;;;5030833;28;20045;-54
2020/12/10 00:07:23;;;;;;;31.15;14.93;;;2.50;99.90;;;;;;5030088;28;20414;-56
2020/12/10 00:10:10;;;;;;;30.98;13.80;;;2.60;99.90;;;;;;5030768;28;20033;-57
2020/12/10 00:12:56;;;;;;;27.45;12.88;;;2.50;99.90;;;;;;5031389;28;20040;-57
2020/12/10 00:15:43;;;;;;;30.77;14.60;;;2.60;99.90;;;;;;5031308;28;20052;-56
2020/12/10 00:18:29;;;;;;;29.83;13.40;;;2.60;99.90;;;;;;5031741;28;20044;-54
2020/12/10 00:21:21;;;;;;;28.98;12.75;;;2.70;99.90;;;;;;5030932;28;20418;-56
2020/12/10 00:24:07;;;;;;;30.33;13.38;;;2.60;99.90;;;;;;5016706;28;20041;-56
2020/12/10 00:26:53;;;;;;;34.55;14.27;;;2.70;99.90;;;;;;5031274;28;20045;-56
2020/12/10 00:29:39;;;;;;;25.35;12.18;;;2.80;99.90;;;;;;5029999;28;20116;-56
2020/12/10 00:32:26;;;;;;;26.38;11.60;;;2.80;99.90;;;;;;5030170;28;20481;-56
2020/12/10 00:35:12;;;;;;;30.02;12.32;;;2.90;99.90;;;;;;5030102;28;20049;-57
2020/12/10 00:37:58;;;;;;;23.40;11.85;;;3.00;99.90;;;;;;5029860;28;20061;-54
2020/12/10 00:40:44;;;;;;;25.83;11.80;;;2.90;99.90;;;;;;5031695;28;20029;-55
2020/12/10 00:43:30;;;;;;;22.88;11.57;;;2.90;99.90;;;;;;5031276;28;20041;-56
2020/12/10 00:46:16;;;;;;;25.45;11.88;;;2.80;99.90;;;;;;5029692;28;20123;-53
2020/12/10 00:49:02;;;;;;;26.95;12.63;;;2.90;99.90;;;;;;5031066;28;20522;-56
2020/12/10 00:51:49;;;;;;;23.88;11.23;;;2.80;99.90;;;;;;5030022;28;20048;-56
2020/12/10 00:54:35;;;;;;;21.83;11.35;;;2.80;99.90;;;;;;5031452;28;20565;-53
2020/12/10 00:57:21;;;;;;;27.90;11.60;;;2.70;99.90;;;;;;5030837;28;20037;-51
2020/12/10 01:00:09;;;;;;;23.83;11.52;;;2.40;99.90;;;;;;5030750;28;20035;-56
2020/12/10 01:02:55;;;;;;;23.63;11.18;;;2.50;99.90;;;;;;5029812;28;20065;-56
2020/12/10 01:05:41;;;;;;;25.70;12.18;;;2.80;99.90;;;;;;5029715;28;20116;-55
2020/12/10 01:08:27;;;;;;;25.73;11.85;;;2.90;99.90;;;;;;5031330;28;20037;-55
2020/12/10 01:11:13;;;;;;;22.35;10.77;;;2.90;99.90;;;;;;5019286;28;20077;-56
2020/12/10 01:13:59;;;;;;;24.67;12.00;;;2.70;99.90;;;;;;5033685;28;20049;-57
2020/12/10 01:16:46;;;;;;;26.50;12.65;;;2.70;99.90;;;;;;5033767;28;20084;-56
2020/12/10 01:19:32;;;;;;;25.95;11.07;;;2.70;99.90;;;;;;5028189;28;20033;-56
2020/12/10 01:22:18;;;;;;;21.35;10.20;;;2.80;99.90;;;;;;5033572;28;20029;-55
2020/12/10 01:25:06;;;;;;;23.33;11.38;;;2.90;99.90;;;;;;5034252;28;20049;-56
2020/12/10 01:27:53;;;;;;;24.73;11.02;;;2.70;99.90;;;;;;5034244;28;20037;-56
2020/12/10 01:30:39;;;;;;;24.20;11.10;;;2.50;99.90;;;;;;5033453;28;20042;-55
2020/12/10 01:33:25;;;;;;;22.20;11.48;;;2.70;99.90;;;;;;5033889;28;20037;-53
2020/12/10 01:36:20;;;;;;;20.05;10.27;;;2.80;99.90;;;;;;5032924;28;20038;-52
2020/12/10 01:39:07;;;;;;;24.77;11.68;;;2.60;99.90;;;;;;5032889;28;20076;-55
2020/12/10 01:41:53;;;;;;;26.23;12.02;;;2.50;99.90;;;;;;5033887;28;20485;-55
2020/12/10 01:44:39;;;;;;;26.50;11.40;;;2.50;99.90;;;;;;5034977;28;20037;-53
2020/12/10 01:47:30;;;;;;;21.30;10.68;;;2.70;99.90;;;;;;5033356;28;20042;-55
2020/12/10 01:50:17;;;;;;;25.23;12.13;;;2.60;99.90;;;;;;5019034;28;20068;-55
2020/12/10 01:53:03;;;;;;;24.40;11.38;;;2.40;99.90;;;;;;5034358;28;20125;-55
2020/12/10 01:55:49;;;;;;;26.75;11.27;;;2.50;99.90;;;;;;5032705;28;20136;-51
2020/12/10 01:58:35;;;;;;;20.58;10.25;;;2.60;99.90;;;;;;5033495;28;20502;-54
2020/12/10 02:01:22;;;;;;;24.58;11.13;;;2.70;99.90;;;;;;5033486;28;20033;-52
2020/12/10 02:04:29;;;;;;;31.23;12.45;;;2.60;99.90;;;;;;5032515;28;20144;-55
2020/12/10 02:07:15;;;;;;;23.15;10.93;;;2.40;99.90;;;;;;5033511;28;20034;-55
2020/12/10 02:10:02;;;;;;;26.30;11.35;;;2.30;99.90;;;;;;5032284;28;20042;-52
2020/12/10 02:12:48;;;;;;;28.13;11.65;;;2.20;99.90;;;;;;5034004;28;20069;-53
2020/12/10 02:15:36;;;;;;;25.83;12.23;;;2.10;99.90;;;;;;5031312;28;20084;-56
2020/12/10 02:18:22;;;;;;;23.67;11.63;;;2.00;99.90;;;;;;5031772;28;20045;-57
2020/12/10 02:21:12;;;;;;;22.80;11.52;;;1.90;99.90;;;;;;5030874;28;20505;-53
2020/12/10 02:23:58;;;;;;;30.85;11.63;;;1.90;99.90;;;;;;5032297;28;20095;-55
2020/12/10 02:26:45;;;;;;;26.77;11.02;;;1.90;99.90;;;;;;5032111;28;20041;-51
2020/12/10 02:29:31;;;;;;;29.05;12.77;;;1.90;99.90;;;;;;5031379;28;20505;-55
2020/12/10 02:32:17;;;;;;;26.92;12.00;;;1.90;99.90;;;;;;5033081;28;20501;-52
2020/12/10 02:35:03;;;;;;;28.90;12.23;;;1.90;99.90;;;;;;5032475;28;20033;-56
2020/12/10 02:37:49;;;;;;;25.83;11.43;;;1.90;99.90;;;;;;5031442;28;20057;-52
2020/12/10 02:40:45;;;;;;;27.20;11.05;;;2.00;99.90;;;;;;5032710;28;20037;-55
2020/12/10 02:43:31;;;;;;;24.65;11.25;;;1.90;99.90;;;;;;5018589;28;20116;-54
2020/12/10 02:46:18;;;;;;;29.25;12.85;;;1.90;99.90;;;;;;5031881;28;20037;-56
2020/12/10 02:49:04;;;;;;;24.60;10.77;;;1.90;99.90;;;;;;5031738;28;20079;-54
2020/12/10 02:51:50;;;;;;;25.52;11.50;;;1.90;99.90;;;;;;5033096;28;20395;-56
2020/12/10 02:54:36;;;;;;;33.65;13.63;;;1.90;99.90;;;;;;5032719;28;20121;-55
2020/12/10 02:57:22;;;;;;;32.85;13.68;;;1.90;99.90;;;;;;5032563;28;20513;-56
2020/12/10 03:00:11;;;;;;;29.45;12.43;;;1.90;99.90;;;;;;5033105;28;20112;-56
2020/12/10 03:02:57;;;;;;;30.15;12.60;;;1.80;99.90;;;;;;5033019;28;20065;-57
2020/12/10 03:05:44;;;;;;;35.95;13.48;;;1.80;99.90;;;;;;5032857;28;20037;-56
2020/12/10 03:08:30;;;;;;;34.35;13.38;;;1.80;99.90;;;;;;5030858;28;20037;-55
2020/12/10 03:11:16;;;;;;;32.80;12.45;;;1.80;99.90;;;;;;5032303;28;20033;-53
2020/12/10 03:14:02;;;;;;;25.08;12.13;;;1.80;99.90;;;;;;5031424;28;20042;-53
2020/12/10 03:16:48;;;;;;;28.23;12.40;;;1.80;99.90;;;;;;5031109;28;20049;-53
2020/12/10 03:19:34;;;;;;;29.60;12.52;;;1.80;99.90;;;;;;5032595;28;20052;-56
2020/12/10 03:22:20;;;;;;;25.60;11.90;;;1.80;99.90;;;;;;5031926;28;20466;-53
2020/12/10 03:25:06;;;;;;;28.20;12.07;;;1.80;99.90;;;;;;5030782;28;20148;-55
2020/12/10 03:27:52;;;;;;;26.17;11.77;;;1.70;99.90;;;;;;5031312;28;20043;-56
2020/12/10 03:30:38;;;;;;;22.85;10.90;;;1.70;99.90;;;;;;5031855;28;20037;-55
2020/12/10 03:33:24;;;;;;;28.98;11.60;;;1.70;99.90;;;;;;5030560;28;20052;-55
2020/12/10 03:36:10;;;;;;;26.98;11.40;;;1.70;99.90;;;;;;5028999;28;20556;-53
2020/12/10 03:38:56;;;;;;;25.98;12.02;;;1.80;99.90;;;;;;5003163;28;20057;-57
2020/12/10 03:41:43;;;;;;;24.67;12.15;;;1.80;99.90;;;;;;5031026;28;20040;-56
2020/12/10 03:44:30;;;;;;;30.42;11.82;;;1.70;99.90;;;;;;5030455;28;20065;-56
2020/12/10 03:47:16;;;;;;;24.98;11.32;;;1.80;99.90;;;;;;5030633;28;20038;-55
2020/12/10 03:50:03;;;;;;;27.52;12.57;;;1.90;99.90;;;;;;5031450;28;20041;-53
2020/12/10 03:52:49;;;;;;;24.45;11.68;;;1.80;99.90;;;;;;5031597;28;20029;-54
2020/12/10 03:55:35;;;;;;;26.35;12.02;;;1.80;99.90;;;;;;5031093;28;20076;-56
2020/12/10 03:58:21;;;;;;;28.33;12.07;;;1.80;99.90;;;;;;5017004;28;20049;-53
2020/12/10 04:01:07;;;;;;;24.83;10.98;;;1.80;99.90;;;;;;5016815;28;20037;-55
2020/12/10 04:03:53;;;;;;;22.73;10.70;;;1.90;99.90;;;;;;5031095;28;20041;-56
2020/12/10 04:06:43;;;;;;;27.20;11.80;;;1.90;99.90;;;;;;5030777;28;20041;-56
2020/12/10 04:09:29;;;;;;;23.02;11.05;;;1.80;99.90;;;;;;5030700;28;20041;-55
2020/12/10 04:12:16;;;;;;;26.52;12.45;;;1.80;99.90;;;;;;5030479;28;20026;-56
2020/12/10 04:15:02;;;;;;;22.20;10.98;;;1.90;99.90;;;;;;5017423;28;20182;-55
2020/12/10 04:17:49;;;;;;;24.38;11.15;;;2.00;99.90;;;;;;5030335;28;20050;-56
2020/12/10 04:20:35;;;;;;;24.95;11.20;;;1.90;99.90;;;;;;5030552;28;20106;-53
2020/12/10 04:23:21;;;;;;;25.15;11.98;;;2.00;99.90;;;;;;5030852;28;20113;-57
2020/12/10 04:26:08;;;;;;;30.42;11.82;;;2.00;99.90;;;;;;5031287;28;20059;-56
2020/12/10 04:28:54;;;;;;;25.42;11.75;;;1.90;99.90;;;;;;5030292;28;20100;-52
2020/12/10 04:31:42;;;;;;;24.00;11.75;;;1.90;99.90;;;;;;5030950;28;20036;-55
2020/12/10 04:34:28;;;;;;;24.58;11.90;;;1.80;99.90;;;;;;5015765;28;20042;-56
2020/12/10 04:37:14;;;;;;;24.85;11.90;;;1.80;99.90;;;;;;5029822;28;20115;-54
2020/12/10 04:40:00;;;;;;;27.45;12.38;;;1.90;99.90;;;;;;5030140;28;20113;-55
2020/12/10 04:42:47;;;;;;;24.58;11.57;;;1.90;99.90;;;;;;5029182;28;20446;-55
2020/12/10 04:45:33;;;;;;;30.98;13.75;;;1.80;99.90;;;;;;5000777;28;20461;-56
2020/12/10 04:48:21;;;;;;;30.75;12.25;;;1.80;99.90;;;;;;5016755;28;20412;-56
2020/12/10 04:51:08;;;;;;;28.75;11.63;;;1.70;99.90;;;;;;5020292;28;20099;-56
2020/12/10 04:53:54;;;;;;;24.15;11.65;;;1.70;99.90;;;;;;5033740;28;20033;-55
2020/12/10 04:56:42;;;;;;;28.10;12.10;;;1.70;99.90;;;;;;5017999;28;20041;-55
2020/12/10 04:59:28;;;;;;;26.35;11.90;;;1.70;99.90;;;;;;5006470;28;20049;-54
2020/12/10 05:02:19;;;;;;;27.42;11.80;;;1.70;99.90;;;;;;5034045;28;20041;-56
2020/12/10 05:05:31;;;;;;;28.58;12.43;;;1.70;99.90;;;;;;5034091;28;20506;-54
2020/12/10 05:08:32;;;;;;;22.90;10.80;;;1.70;99.90;;;;;;5019173;28;20038;-55
2020/12/10 05:11:38;;;;;;;28.07;12.27;;;1.70;99.90;;;;;;5019783;28;20038;-55
2020/12/10 05:14:44;;;;;;;30.00;11.95;;;1.70;99.90;;;;;;5032309;28;20116;-56
2020/12/10 05:17:30;;;;;;;27.02;12.57;;;1.70;99.90;;;;;;5021236;28;20037;-53
2020/12/10 05:20:16;;;;;;;30.55;13.13;;;1.70;99.90;;;;;;5033837;28;20033;-55
2020/12/10 05:23:03;;;;;;;29.25;12.18;;;1.70;99.90;;;;;;5033905;28;20465;-55
2020/12/10 05:25:51;;;;;;;27.05;13.35;;;1.70;99.90;;;;;;5018922;28;20446;-54
2020/12/10 05:28:49;;;;;;;28.30;12.13;;;1.60;99.90;;;;;;5018981;28;20588;-54
2020/12/10 05:31:36;;;;;;;31.30;13.27;;;1.70;99.90;;;;;;5033926;28;20095;-56
2020/12/10 05:34:26;;;;;;;31.42;12.93;;;1.70;99.90;;;;;;5034074;28;20041;-54
2020/12/10 05:37:27;;;;;;;28.02;11.75;;;1.80;99.90;;;;;;5006257;28;20053;-53
2020/12/10 05:40:15;;;;;;;28.15;12.63;;;2.00;99.90;;;;;;5033109;28;20042;-54
2020/12/10 05:43:01;;;;;;;31.85;13.20;;;2.10;99.90;;;;;;5018936;28;20045;-55
2020/12/10 05:45:52;;;;;;;32.15;12.52;;;2.00;99.90;;;;;;5033276;28;20096;-54
2020/12/10 05:48:38;;;;;;;31.17;13.15;;;2.00;99.90;;;;;;5031895;28;20425;-55
2020/12/10 05:51:25;;;;;;;28.15;13.85;;;2.10;99.90;;;;;;5011491;28;20050;-55
2020/12/10 05:54:14;;;;;;;25.80;12.50;;;2.10;99.90;;;;;;4999284;28;20042;-55
2020/12/10 05:57:04;;;;;;;28.55;12.57;;;1.90;99.90;;;;;;5012959;28;20030;-54
2020/12/10 05:59:50;;;;;;;28.80;12.15;;;2.10;99.90;;;;;;5012533;28;20069;-54
2020/12/10 06:02:36;;;;;;;30.13;12.48;;;2.00;99.90;;;;;;4999332;28;20041;-56
2020/12/10 06:05:24;;;;;;;30.33;12.55;;;1.90;99.90;;;;;;5014277;28;20042;-57
2020/12/10 06:08:10;;;;;;;28.08;12.52;;;1.80;99.90;;;;;;4999770;28;20072;-55
2020/12/10 06:10:56;;;;;;;28.85;12.63;;;1.80;99.90;;;;;;5012975;28;20546;-54
2020/12/10 06:13:42;;;;;;;29.30;12.55;;;1.80;99.90;;;;;;5005595;28;20038;-53
2020/12/10 06:16:29;;;;;;;30.13;13.35;;;1.80;99.90;;;;;;5032000;28;20041;-54
2020/12/10 06:19:15;;;;;;;27.80;12.95;;;1.80;99.90;;;;;;5031632;28;20041;-52
2020/12/10 06:22:31;;;;;;;26.83;13.50;;;1.80;99.90;;;;;;5031878;28;20104;-55
2020/12/10 06:25:29;;;;;;;67.18;27.77;;;2.00;99.90;;;;;;5032024;28;20478;-57
2020/12/10 06:28:19;;;;;;;34.97;15.88;;;2.10;99.90;;;;;;5032666;28;20494;-53
2020/12/10 06:31:12;;;;;;;50.63;21.57;;;2.00;99.90;;;;;;5017964;28;20075;-53
2020/12/10 06:33:58;;;;;;;30.42;13.20;;;2.00;99.90;;;;;;5032774;28;20033;-55
2020/12/10 06:36:44;;;;;;;31.25;16.83;;;2.00;99.90;;;;;;5016395;28;20065;-51
2020/12/10 06:39:37;;;;;;;28.85;13.48;;;1.90;99.90;;;;;;5030956;28;20066;-54
2020/12/10 06:42:24;;;;;;;28.13;12.02;;;2.20;99.90;;;;;;5031778;28;20037;-52
2020/12/10 06:45:34;;;;;;;27.63;12.70;;;2.10;99.90;;;;;;5016757;28;20076;-53
2020/12/10 06:48:21;;;;;;;28.92;13.55;;;2.20;99.90;;;;;;5032806;28;20041;-56
2020/12/10 06:51:21;;;;;;;27.77;12.15;;;2.30;99.90;;;;;;5017287;28;20085;-55
2020/12/10 06:54:12;;;;;;;31.38;13.68;;;2.30;99.90;;;;;;5031428;28;20041;-53
2020/12/10 06:57:05;;;;;;;27.88;12.85;;;2.30;99.90;;;;;;5031807;28;20036;-56
2020/12/10 06:59:53;;;;;;;30.10;13.57;;;2.30;99.90;;;;;;5018212;28;20045;-52
2020/12/10 07:02:39;;;;;;;36.38;17.17;;;2.20;99.90;;;;;;5031240;28;20030;-53
2020/12/10 07:05:31;;;;;;;42.42;20.10;;;2.30;99.90;;;;;;5031444;28;20037;-55
2020/12/10 07:08:20;;;;;;;31.80;14.55;;;2.30;99.90;;;;;;5016685;28;20369;-54
2020/12/10 07:11:07;;;;;;;29.40;14.00;;;2.20;99.90;;;;;;5031474;28;20068;-56
2020/12/10 07:13:53;;;;;;;31.08;14.02;;;2.40;99.90;;;;;;5031431;28;20033;-53
2020/12/10 07:16:40;;;;;;;29.08;13.18;;;2.40;99.90;;;;;;5017555;28;20518;-56
2020/12/10 07:19:26;;;;;;;36.00;14.68;;;2.20;99.90;;;;;;5017565;28;20040;-55
2020/12/10 07:22:23;;;;;;;29.67;12.45;;;2.30;99.90;;;;;;5016915;28;20041;-52
2020/12/10 07:25:11;;;;;;;34.65;14.07;;;2.20;99.90;;;;;;5033391;28;20030;-57
2020/12/10 07:27:59;;;;;;;27.90;12.77;;;2.30;99.90;;;;;;5031340;28;20095;-56
2020/12/10 07:30:45;;;;;;;31.05;13.98;;;2.20;99.90;;;;;;5029969;28;20044;-52
2020/12/10 07:33:31;;;;;;;36.80;15.07;;;2.20;99.90;;;;;;5031689;28;20446;-55
2020/12/10 07:36:18;;;;;;;30.63;13.95;;;2.20;99.90;;;;;;5017159;28;20049;-54
2020/12/10 07:39:04;;;;;;;31.15;13.60;;;2.10;99.90;;;;;;5004490;28;20064;-55
2020/12/10 07:41:53;;;;;;;33.08;14.40;;;2.10;99.90;;;;;;5031482;28;20433;-55
2020/12/10 07:44:42;;;;;;;32.38;14.27;;;2.10;99.90;;;;;;4997982;28;20048;-53
2020/12/10 07:47:30;;;;;;;28.70;14.15;;;2.10;99.90;;;;;;4982847;28;20124;-54
2020/12/10 07:50:23;;;;;;;33.80;14.75;;;2.10;99.90;;;;;;4997645;28;20384;-55
2020/12/10 07:53:09;;;;;;;34.42;14.30;;;2.10;99.90;;;;;;5010454;28;20121;-53
2020/12/10 07:56:03;;;;;;;28.52;13.38;;;2.10;99.90;;;;;;5011667;28;20050;-56
2020/12/10 07:59:08;;;;;;;31.23;13.88;;;2.20;99.90;;;;;;5010957;28;20169;-56
2020/12/10 08:01:56;;;;;;;30.42;13.60;;;2.20;99.90;;;;;;4997658;28;20120;-56
2020/12/10 08:04:43;;;;;;;30.33;14.00;;;2.30;99.90;;;;;;5010485;28;20415;-51
2020/12/10 08:07:29;;;;;;;28.98;13.90;;;2.40;99.90;;;;;;4996908;28;20042;-55
2020/12/10 08:10:33;;;;;;;25.30;13.27;;;2.40;99.90;;;;;;5009190;28;20038;-55
2020/12/10 08:13:19;;;;;;;28.05;13.13;;;3.00;99.90;;;;;;5001994;28;20030;-55
2020/12/10 08:16:08;;;;;;;27.33;13.52;;;3.00;99.90;;;;;;5030875;28;20049;-56
2020/12/10 08:18:54;;;;;;;25.90;13.13;;;3.10;99.90;;;;;;5031576;28;20042;-54
2020/12/10 08:21:42;;;;;;;30.73;14.93;;;3.40;99.90;;;;;;5035850;28;20034;-54
2020/12/10 08:24:44;;;;;;;38.45;17.05;;;3.00;99.90;;;;;;5020233;28;20034;-54
2020/12/10 08:27:34;;;;;;;37.33;17.45;;;2.70;99.90;;;;;;5034175;28;20371;-53
2020/12/10 08:30:22;;;;;;;37.42;16.55;;;2.50;99.90;;;;;;5007573;28;20043;-55
2020/12/10 08:33:11;;;;;;;37.88;17.40;;;2.50;99.90;;;;;;5019678;28;20037;-54
2020/12/10 08:36:01;;;;;;;56.33;24.02;;;2.40;99.90;;;;;;5035027;28;20041;-53
2020/12/10 08:38:53;;;;;;;39.97;17.40;;;2.50;99.90;;;;;;5018842;28;20069;-55
2020/12/10 08:41:44;;;;;;;33.20;16.17;;;2.60;99.90;;;;;;5034909;28;20113;-56
2020/12/10 08:44:47;;;;;;;31.58;14.40;;;2.70;99.90;;;;;;5034876;28;20029;-56
2020/12/10 08:47:34;;;;;;;35.08;16.63;;;2.70;99.90;;;;;;5034529;28;20033;-56
2020/12/10 08:50:27;;;;;;;35.47;16.75;;;2.50;99.90;;;;;;5034904;28;20410;-53
2020/12/10 08:53:13;;;;;;;34.58;15.73;;;2.50;99.90;;;;;;5034215;28;20485;-54
2020/12/10 08:55:59;;;;;;;37.05;17.75;;;2.50;99.90;;;;;;5035478;28;20033;-53
2020/12/10 08:58:45;;;;;;;29.10;13.80;;;2.50;99.90;;;;;;5034172;28;20076;-56
2020/12/10 09:01:34;;;;;;;24.67;12.60;;;2.50;99.90;;;;;;5034696;28;20056;-53
2020/12/10 09:04:24;;;;;;;27.83;12.90;;;2.50;99.90;;;;;;5020256;28;20081;-54
2020/12/10 09:07:11;;;;;;;29.33;13.02;;;2.40;99.90;;;;;;5020444;28;20495;-50
2020/12/10 09:10:04;;;;;;;27.58;12.60;;;2.40;99.90;;;;;;5031864;28;20072;-55
2020/12/10 09:12:50;;;;;;;28.70;12.43;;;2.40;99.90;;;;;;5032933;28;20033;-52
2020/12/10 09:15:39;;;;;;;27.13;13.45;;;2.50;99.90;;;;;;5034502;28;20088;-56
2020/12/10 09:18:26;;;;;;;22.45;11.75;;;2.60;99.90;;;;;;5034978;28;20069;-55
2020/12/10 09:21:14;;;;;;;24.92;11.80;;;2.60;99.90;;;;;;5019299;28;20037;-53
2020/12/10 09:24:01;;;;;;;23.77;12.05;;;2.50;99.90;;;;;;5034854;28;20505;-53
2020/12/10 09:27:10;;;;;;;24.30;12.13;;;2.40;99.90;;;;;;5034804;28;20037;-51
2020/12/10 09:29:58;;;;;;;22.58;11.90;;;2.40;99.90;;;;;;5033552;28;20133;-55
2020/12/10 09:32:44;;;;;;;26.98;12.55;;;2.40;99.90;;;;;;5005527;28;20038;-54
2020/12/10 09:35:31;;;;;;;26.33;13.13;;;2.30;99.90;;;;;;5034156;28;20029;-56
2020/12/10 09:38:17;;;;;;;21.30;10.82;;;2.40;99.90;;;;;;5034410;28;20061;-56
2020/12/10 09:41:04;;;;;;;26.55;12.60;;;2.40;99.90;;;;;;5033213;28;20038;-51
2020/12/10 09:43:53;;;;;;;27.25;11.55;;;2.50;99.90;;;;;;5031962;28;20033;-56
2020/12/10 09:46:41;;;;;;;23.92;12.25;;;2.60;99.90;;;;;;5033587;28;20441;-55
2020/12/10 09:49:27;;;;;;;25.42;12.20;;;2.60;99.90;;;;;;5034393;28;20405;-55
2020/12/10 09:52:14;;;;;;;24.80;12.43;;;2.60;99.90;;;;;;5019551;28;20049;-55
2020/12/10 09:55:22;;;;;;;28.25;12.48;;;2.40;99.90;;;;;;5033679;28;20429;-56
2020/12/10 09:58:09;;;;;;;27.52;12.57;;;2.60;99.90;;;;;;5034058;28;20502;-55
2020/12/10 10:00:55;;;;;;;24.40;12.00;;;2.60;99.90;;;;;;5032386;28;20033;-57
2020/12/10 10:03:41;;;;;;;29.30;12.68;;;3.10;99.90;;;;;;5033368;28;20566;-56
2020/12/10 10:06:35;;;;;;;25.08;12.57;;;2.80;99.90;;;;;;5005401;28;20044;-52
2020/12/10 10:09:24;;;;;;;27.80;12.82;;;2.70;99.90;;;;;;5033274;28;20543;-55
2020/12/10 10:12:16;;;;;;;23.83;11.20;;;2.70;99.90;;;;;;5031442;28;20121;-53
2020/12/10 10:15:02;;;;;;;24.50;12.18;;;2.70;99.90;;;;;;5031284;28;20080;-56
2020/12/10 10:17:48;;;;;;;32.65;14.77;;;2.60;99.90;;;;;;5032916;28;20452;-55
2020/12/10 10:20:36;;;;;;;35.88;16.13;;;2.50;99.90;;;;;;5033324;28;20437;-55
2020/12/10 10:23:24;;;;;;;30.17;15.15;;;2.60;99.90;;;;;;5033235;28;20159;-56
2020/12/10 10:26:10;;;;;;;29.90;13.88;;;2.60;99.90;;;;;;5033509;28;20071;-57
2020/12/10 10:28:57;;;;;;;33.70;14.55;;;2.60;99.90;;;;;;5032387;28;20072;-55
2020/12/10 10:31:43;;;;;;;29.77;13.65;;;2.60;99.90;;;;;;5032745;28;20049;-56
2020/12/10 10:34:30;;;;;;;33.08;13.40;;;2.90;99.90;;;;;;5032776;28;20121;-56
2020/12/10 10:37:16;;;;;;;31.30;13.88;;;2.90;99.90;;;;;;5017018;28;20041;-54
2020/12/10 10:40:02;;;;;;;28.88;13.10;;;3.00;99.90;;;;;;5032159;28;20045;-54
2020/12/10 10:42:49;;;;;;;29.80;12.43;;;2.80;99.90;;;;;;5032463;28;20056;-55
2020/12/10 10:45:36;;;;;;;24.10;11.00;;;3.10;99.90;;;;;;5031899;28;20025;-57
2020/12/10 10:48:22;;;;;;;24.67;11.80;;;3.20;99.90;;;;;;5030983;28;20379;-56
2020/12/10 10:51:11;;;;;;;26.42;11.75;;;2.70;99.90;;;;;;5032322;28;20107;-57
2020/12/10 10:54:00;;;;;;;25.95;12.02;;;2.90;99.90;;;;;;5031972;28;20487;-57
2020/12/10 10:56:46;;;;;;;29.70;12.82;;;2.80;99.90;;;;;;5017283;28;20037;-56
2020/12/10 10:59:32;;;;;;;26.42;12.77;;;2.80;99.90;;;;;;5032588;28;20040;-55
2020/12/10 11:02:19;;;;;;;29.90;13.88;;;2.60;99.90;;;;;;5032327;28;20068;-57
2020/12/10 11:05:05;;;;;;;26.67;12.48;;;2.80;99.90;;;;;;5032175;28;20034;-56
2020/12/10 11:07:51;;;;;;;27.60;12.40;;;3.00;99.90;;;;;;5032338;28;20038;-55
2020/12/10 11:10:37;;;;;;;26.90;12.07;;;2.80;99.90;;;;;;5031569;28;20041;-55
2020/12/10 11:13:31;;;;;;;27.42;12.50;;;2.70;99.90;;;;;;5031976;28;20033;-55
2020/12/10 11:16:18;;;;;;;29.83;13.02;;;2.90;99.90;;;;;;5016702;28;20482;-56
2020/12/10 11:19:05;;;;;;;25.48;12.38;;;3.10;99.90;;;;;;5032982;28;20099;-55
2020/12/10 11:22:26;;;;;;;24.45;12.27;;;3.10;99.90;;;;;;5030905;28;20045;-56
2020/12/10 11:25:13;;;;;;;28.10;12.73;;;3.20;99.90;;;;;;5030361;28;20198;-57
2020/12/10 11:28:05;;;;;;;31.25;12.80;;;3.30;99.90;;;;;;5032960;28;20041;-57
2020/12/10 11:31:05;;;;;;;27.08;12.68;;;3.30;99.90;;;;;;5030104;28;20036;-55
2020/12/10 11:33:51;;;;;;;26.65;12.60;;;3.20;99.90;;;;;;5030005;28;20043;-57
2020/12/10 11:36:38;;;;;;;27.35;12.35;;;2.90;99.90;;;;;;5018681;28;20065;-56
2020/12/10 11:39:24;;;;;;;24.63;12.05;;;2.80;99.90;;;;;;5029687;28;20080;-57
2020/12/10 11:42:18;;;;;;;27.65;11.73;;;2.90;99.90;;;;;;5018017;28;20124;-55
2020/12/10 11:45:04;;;;;;;26.63;11.70;;;3.20;99.90;;;;;;5031960;28;20104;-59
2020/12/10 11:47:50;;;;;;;27.45;12.45;;;3.30;99.90;;;;;;5032535;28;20033;-57
2020/12/10 11:51:07;;;;;;;25.85;11.57;;;3.20;99.90;;;;;;5030939;28;20514;-57
2020/12/10 11:53:53;;;;;;;16.95;7.10;;;3.40;99.90;;;;;;5015869;28;20079;-56
2020/12/10 11:56:39;;;;;;;11.27;5.85;;;3.20;99.90;;;;;;5031718;28;20124;-54
2020/12/10 11:59:26;;;;;;;12.85;7.25;;;2.90;99.90;;;;;;5030729;28;20133;-57
2020/12/10 12:02:55;;;;;;;13.70;6.32;;;2.90;99.90;;;;;;5013778;28;20045;-57
2020/12/10 12:06:01;;;;;;;14.35;6.95;;;2.80;99.90;;;;;;5032662;28;20100;-56
2020/12/10 12:09:07;;;;;;;16.10;7.28;;;2.90;99.90;;;;;;5020192;28;20037;-57
2020/12/10 12:12:13;;;;;;;15.10;7.35;;;2.90;99.90;;;;;;5031008;28;20402;-56
2020/12/10 12:14:59;;;;;;;15.98;7.68;;;3.00;99.90;;;;;;5031082;28;20537;-52
2020/12/10 12:17:47;;;;;;;11.88;5.88;;;3.10;99.90;;;;;;5016530;28;20445;-57
2020/12/10 12:20:33;;;;;;;12.48;5.93;;;3.20;99.90;;;;;;5030202;28;20041;-56
2020/12/10 12:23:20;;;;;;;12.10;6.22;;;3.50;99.90;;;;;;5032052;28;20038;-57
2020/12/10 12:26:34;;;;;;;21.10;10.13;;;3.30;99.90;;;;;;5015354;28;20042;-57
2020/12/10 12:29:20;;;;;;;7.93;4.35;;;3.40;99.90;;;;;;5018844;28;20103;-56
2020/12/10 12:32:07;;;;;;;9.23;5.32;;;3.30;99.90;;;;;;5029388;28;20033;-57
2020/12/10 12:35:17;;;;;;;11.40;5.43;;;3.10;99.90;;;;;;5017508;28;20045;-57
2020/12/10 12:38:30;;;;;;;10.75;5.70;;;2.90;99.90;;;;;;5030742;28;20096;-55
2020/12/10 12:41:20;;;;;;;10.48;4.85;;;3.20;99.90;;;;;;5030908;28;20497;-57
2020/12/10 12:44:30;;;;;;;9.15;4.43;;;3.40;99.90;;;;;;5016763;28;20069;-56
2020/12/10 12:47:36;;;;;;;9.52;5.22;;;3.40;99.90;;;;;;5028967;28;20045;-57
2020/12/10 12:50:24;;;;;;;8.63;4.65;;;3.30;99.90;;;;;;5031328;28;20045;-53
2020/12/10 12:53:30;;;;;;;10.13;4.88;;;3.20;99.90;;;;;;5019301;28;20041;-57
2020/12/10 12:56:16;;;;;;;11.20;5.35;;;3.10;99.90;;;;;;5030736;28;20033;-56
2020/12/10 12:59:04;;;;;;;10.07;5.20;;;3.30;99.90;;;;;;5030618;28;20047;-54
2020/12/10 13:01:50;;;;;;;13.35;6.80;;;3.50;99.90;;;;;;5031018;28;20117;-57
2020/12/10 13:04:37;;;;;;;14.35;6.82;;;3.30;99.90;;;;;;5031064;28;20044;-57
2020/12/10 13:07:23;;;;;;;10.73;5.88;;;3.00;99.90;;;;;;5033196;28;20037;-55
2020/12/10 13:10:24;;;;;;;16.10;8.73;;;3.00;99.90;;;;;;5033125;28;20036;-56
2020/12/10 13:13:18;;;;;;;11.83;5.47;;;3.00;99.90;;;;;;5019533;28;20026;-55
2020/12/10 13:16:04;;;;;;;11.63;5.78;;;3.20;99.90;;;;;;5033419;28;20044;-55
2020/12/10 13:19:30;;;;;;;11.23;5.53;;;3.20;99.90;;;;;;5034165;28;20038;-57
2020/12/10 13:22:27;;;;;;;12.90;6.72;;;3.10;99.90;;;;;;5033185;28;20035;-57
2020/12/10 13:25:13;;;;;;;14.57;6.95;;;2.90;99.90;;;;;;5020730;28;20040;-56
2020/12/10 13:28:00;;;;;;;11.15;5.75;;;2.90;99.90;;;;;;5034669;28;20038;-56
2020/12/10 13:31:07;;;;;;;12.90;6.10;;;2.90;99.90;;;;;;5034058;28;20037;-55
2020/12/10 13:33:59;;;;;;;12.27;6.35;;;3.10;99.90;;;;;;5022602;28;20073;-54
2020/12/10 13:36:45;;;;;;;14.30;7.13;;;3.00;99.90;;;;;;5019553;28;20469;-56
2020/12/10 13:39:32;;;;;;;16.17;7.50;;;2.90;99.90;;;;;;5033016;28;20085;-56
2020/12/10 13:42:18;;;;;;;15.38;7.53;;;3.00;99.90;;;;;;5033752;28;20037;-57
2020/12/10 13:45:05;;;;;;;15.82;8.13;;;2.90;99.90;;;;;;5034183;28;20050;-55
2020/12/10 13:47:51;;;;;;;13.60;7.28;;;2.90;99.90;;;;;;5033672;28;20045;-56
2020/12/10 13:50:44;;;;;;;18.42;7.93;;;2.90;99.90;;;;;;5033391;28;20030;-54
2020/12/10 13:53:32;;;;;;;15.75;8.02;;;2.90;99.90;;;;;;5034045;28;20136;-55
2020/12/10 13:56:19;;;;;;;16.17;7.35;;;2.90;99.90;;;;;;5032735;28;20038;-55
2020/12/10 13:59:05;;;;;;;16.50;8.23;;;2.90;99.90;;;;;;5031680;28;20124;-59
2020/12/10 14:01:51;;;;;;;14.35;7.90;;;2.90;99.90;;;;;;5033533;28;20140;-56
2020/12/10 14:04:37;;;;;;;15.00;7.07;;;2.90;99.90;;;;;;5032862;28;20055;-56
2020/12/10 14:07:23;;;;;;;15.45;7.82;;;3.10;99.90;;;;;;5019135;28;20045;-57
2020/12/10 14:10:09;;;;;;;13.60;7.20;;;2.90;99.90;;;;;;5033419;28;20041;-55
2020/12/10 14:13:03;;;;;;;18.40;9.73;;;2.90;99.90;;;;;;5032034;28;20128;-55
2020/12/10 14:15:53;;;;;;;19.40;9.52;;;2.90;99.90;;;;;;5029913;28;20041;-57
2020/12/10 14:18:48;;;;;;;15.25;8.52;;;2.80;99.90;;;;;;5032733;28;20048;-57
2020/12/10 14:21:34;;;;;;;17.75;8.35;;;3.00;99.90;;;;;;5031662;28;20033;-58
2020/12/10 14:24:20;;;;;;;23.65;9.57;;;3.10;99.90;;;;;;5032939;28;20524;-55
2020/12/10 14:27:06;;;;;;;19.38;9.55;;;3.00;99.90;;;;;;5033061;28;20045;-57
2020/12/10 14:29:53;;;;;;;17.38;8.40;;;2.90;99.90;;;;;;5033001;28;20049;-55
2020/12/10 14:32:39;;;;;;;17.60;9.10;;;2.80;99.90;;;;;;5031989;28;20037;-57